Boynton Beach, FL

6:21 AM EDT on August 03, 2015 (GMT -0400)
Princeton Place 2 | | Change Station
CLOSE
Current Station
Personal Weather Station
Location: Boynton Beach, FL
Elevation: 14 ft
Nearby Weather Stations

Elev 14 ft 26.55 °N, 80.12 °W | Updated 17 hours ago

Partly Cloudy
Partly Cloudy
75 °F
Feels Like 75 °F
N
3
Wind Variable Wind from South
Gusts mph

Today
High -- | Low -- °F
--% Chance of Precip.
Yesterday
High -- | Low -- °F
Precip. -- in
6:46 AM 8:06 PM
Waning Gibbous, 88% visible
Pressure 29.94 in
Visibility 10.0 miles
Clouds Few 3700 ft
Scattered Clouds 25000 ft
Dew Point 73 °F
Humidity 94%
Rainfall in
Snow Depth Not available.
UV 0 out of 12
Pollen 3.40 out of 12
Air Quality Not available.
Flu Activity Not available.
METAR KPBI 030953Z 00000KT 10SM FEW037 SCT250 23/21 A2994 RMK AO2 SLP139 T02330211

More Conditions Fewer Conditions

Pressure 29.94 in
Visibility 10.0 miles
Clouds Few 3700 ft
Scattered Clouds 25000 ft
Dew Point 73 °F
Humidity 94%
Rainfall in
Snow Depth Not available.
UV 0 out of 12
Pollen 3.40 out of 12
Air Quality Not available.
Flu Activity Not available.
METAR KPBI 030953Z 00000KT 10SM FEW037 SCT250 23/21 A2994 RMK AO2 SLP139 T02330211

More Conditions Fewer Conditions

10-Day Weather Forecast

×

Almanac

Astronomy

Aug. 03, 2015 Rise Set
Actual Time
Civil Twilight
Nautical Twilight
Astronomical Twilight
Moon
Length of Visible Light
Length of Day
Tomorrow will be .
, % of the Moon is Illuminated

Today's Extremes

State Highs State Lows

Community

WunderPhotos

Upload Photos

1,843,610 photos uploaded!

WunderBlogs® & News

Nearby

Air Quality

  Air Quality AQ Index Pollutant
Not available.

Snow Depth

Station Depth Elevation

Earthquake Activity

City Distance Mag. Time & Date
Minimum magnitude displayed is 2.5.

Coastal Water Temperatures

Place Temperature

Stations

Nearby Weather Stations

Station Location Temp. Windchill Dew Point Humidity Wind Precip. Elev Updated Type